createdAt,value
2022-08-05T00:00:16.139Z,10.20
2022-08-05T00:02:43.979Z,9.93
2022-08-05T00:06:03.279Z,9.75
2022-08-05T00:08:32.836Z,10.15
2022-08-05T00:10:53.104Z,9.77
2022-08-05T00:13:19.968Z,10.32
2022-08-05T00:15:55.350Z,9.98
2022-08-05T00:18:25.107Z,9.68
2022-08-05T00:20:52.219Z,9.88
2022-08-05T00:23:44.424Z,10.10
2022-08-05T00:26:07.504Z,9.77
2022-08-05T00:28:34.706Z,8.55
2022-08-05T00:31:02.820Z,9.43
2022-08-05T00:34:54.360Z,9.65
2022-08-05T00:37:10.880Z,9.18
2022-08-05T00:39:13.639Z,10.43
2022-08-05T00:41:46.864Z,10.95
2022-08-05T00:44:30.785Z,10.20
2022-08-05T00:47:01.861Z,10.23
2022-08-05T00:49:51.041Z,10.10
2022-08-05T00:52:19.183Z,10.00
2022-08-05T00:54:56.184Z,9.88
2022-08-05T00:57:25.184Z,9.60
2022-08-05T00:59:52.515Z,9.60
2022-08-05T01:02:19.823Z,10.05
2022-08-05T01:04:51.183Z,9.45
2022-08-05T01:07:18.139Z,9.35
2022-08-05T01:09:45.111Z,9.23
2022-08-05T01:12:18.018Z,9.63
2022-08-05T01:14:51.839Z,8.60
2022-08-05T01:17:53.545Z,9.10
2022-08-05T01:20:20.683Z,9.95
2022-08-05T01:23:14.415Z,9.65
2022-08-05T01:26:12.929Z,7.85
2022-08-05T01:29:12.167Z,9.18
2022-08-05T01:31:45.518Z,9.40
2022-08-05T01:34:51.139Z,9.63
2022-08-05T01:37:32.871Z,9.27
2022-08-05T01:40:06.593Z,9.23
2022-08-05T01:42:36.650Z,8.93
2022-08-05T01:45:08.154Z,9.23
2022-08-05T01:47:38.698Z,8.93
2022-08-05T01:50:16.058Z,9.00
2022-08-05T01:52:49.746Z,9.32
2022-08-05T01:55:19.684Z,9.02
2022-08-05T01:58:29.500Z,8.65
2022-08-05T02:00:42.189Z,9.50
2022-08-05T02:03:31.260Z,9.63
2022-08-05T02:06:03.578Z,8.70
2022-08-05T02:08:58.147Z,9.00
2022-08-05T02:11:32.724Z,8.75
2022-08-05T02:14:12.347Z,9.80
2022-08-05T02:16:52.177Z,9.40
2022-08-05T02:19:34.298Z,9.20
2022-08-05T02:22:26.604Z,10.13
2022-08-05T02:25:02.556Z,9.95
2022-08-05T02:27:58.293Z,9.95
2022-08-05T02:30:20.826Z,9.25
2022-08-05T02:32:51.521Z,8.93
2022-08-05T02:35:27.994Z,9.35
2022-08-05T02:38:02.312Z,8.80
2022-08-05T02:40:30.121Z,7.95
2022-08-05T02:42:59.762Z,8.75
2022-08-05T02:45:28.886Z,8.95
2022-08-05T02:48:17.649Z,9.30
2022-08-05T02:50:48.395Z,9.45
2022-08-05T02:53:18.928Z,9.00
2022-08-05T02:55:54.766Z,8.73
2022-08-05T02:58:27.418Z,9.15
2022-08-05T03:00:57.086Z,8.95
2022-08-05T03:03:24.298Z,9.10
2022-08-05T03:06:56.938Z,9.38
2022-08-05T03:08:42.649Z,8.65
2022-08-05T03:11:53.199Z,9.38
2022-08-05T03:14:09.551Z,9.35
2022-08-05T03:16:40.637Z,8.70
2022-08-05T03:19:17.166Z,9.20
2022-08-05T03:21:54.202Z,8.85
2022-08-05T03:24:29.297Z,9.23
2022-08-05T03:27:01.237Z,9.00
2022-08-05T03:29:44.360Z,8.88
2022-08-05T03:32:14.310Z,9.52
2022-08-05T03:34:42.518Z,9.57
2022-08-05T03:37:19.313Z,9.25
2022-08-05T03:39:58.543Z,9.75
2022-08-05T03:42:27.108Z,9.23
2022-08-05T03:44:56.011Z,8.95
2022-08-05T03:47:24.376Z,9.77
2022-08-05T03:49:52.439Z,9.27
2022-08-05T03:52:36.872Z,9.90
2022-08-05T03:56:04.041Z,9.38
2022-08-05T03:58:17.835Z,9.02
2022-08-05T04:00:46.470Z,9.88
2022-08-05T04:03:28.168Z,9.63
2022-08-05T04:05:57.649Z,10.13
2022-08-05T04:08:34.858Z,11.20
2022-08-05T04:11:08.405Z,10.23
2022-08-05T04:13:50.832Z,9.65
2022-08-05T04:16:24.870Z,10.57
2022-08-05T04:18:57.860Z,9.77
2022-08-05T04:22:05.319Z,10.57
2022-08-05T04:24:19.204Z,10.68
2022-08-05T04:26:49.507Z,9.85
2022-08-05T04:29:17.038Z,9.82
2022-08-05T04:31:43.837Z,9.35
2022-08-05T04:34:33.117Z,9.65
2022-08-05T04:36:58.011Z,9.30
2022-08-05T04:39:25.003Z,9.63
2022-08-05T04:41:54.691Z,10.30
2022-08-05T04:44:29.958Z,10.32
2022-08-05T04:47:09.658Z,9.50
2022-08-05T04:50:01.917Z,9.13
2022-08-05T04:52:27.716Z,9.82
2022-08-05T04:54:57.201Z,9.70
2022-08-05T04:57:28.765Z,9.38
2022-08-05T04:59:56.608Z,9.73
2022-08-05T05:02:36.334Z,9.05
2022-08-05T05:05:26.063Z,9.75
2022-08-05T05:07:56.217Z,10.10
2022-08-05T05:10:29.531Z,10.10
2022-08-05T05:12:56.704Z,9.90
2022-08-05T05:15:57.436Z,10.20
2022-08-05T05:18:15.352Z,10.85
2022-08-05T05:20:55.556Z,10.90
2022-08-05T05:23:25.354Z,10.60
2022-08-05T05:25:53.389Z,11.68
2022-08-05T05:28:20.408Z,10.80
2022-08-05T05:30:49.595Z,10.05
2022-08-05T05:33:17.310Z,11.30
2022-08-05T05:35:48.370Z,11.57
2022-08-05T05:38:22.874Z,10.00
2022-08-05T05:40:57.324Z,10.40
2022-08-05T05:43:56.374Z,10.02
2022-08-05T05:46:17.314Z,10.88
2022-08-05T05:48:45.975Z,10.00
2022-08-05T05:51:22.246Z,10.57
2022-08-05T05:53:57.302Z,11.32
2022-08-05T05:56:33.306Z,12.10
2022-08-05T06:01:41.498Z,12.88
2022-08-05T06:04:25.100Z,13.32
2022-08-05T06:06:52.037Z,13.40
2022-08-05T06:09:25.685Z,13.52
2022-08-05T06:12:06.016Z,13.25
2022-08-05T06:14:36.749Z,13.23
2022-08-05T06:17:22.638Z,12.93
2022-08-05T06:19:56.831Z,13.30
2022-08-05T06:22:33.678Z,12.32
2022-08-05T06:25:24.233Z,14.23
2022-08-05T06:28:10.964Z,14.20
2022-08-05T06:30:35.564Z,14.65
2022-08-05T06:33:02.377Z,14.70
2022-08-05T06:36:07.984Z,13.93
2022-08-05T06:38:16.365Z,13.68
2022-08-05T06:40:44.713Z,13.75
2022-08-05T06:43:58.580Z,14.00
2022-08-05T06:46:06.744Z,14.10
2022-08-05T06:48:54.739Z,13.48
2022-08-05T06:51:29.079Z,14.27
2022-08-05T06:53:58.398Z,14.85
2022-08-05T06:56:26.565Z,13.70
2022-08-05T06:58:54.383Z,14.98
2022-08-05T07:01:21.782Z,14.73
2022-08-05T07:03:49.817Z,14.98
2022-08-05T07:06:17.453Z,14.10
2022-08-05T07:08:51.932Z,15.48
2022-08-05T07:11:25.464Z,14.27
2022-08-05T07:14:20.287Z,13.65
2022-08-05T07:17:59.180Z,13.48
2022-08-05T07:20:31.178Z,14.35
2022-08-05T07:22:34.828Z,15.02
2022-08-05T07:25:21.697Z,15.50
2022-08-05T07:27:59.714Z,15.82
2022-08-05T07:30:33.747Z,15.35
2022-08-05T07:33:09.246Z,15.18
2022-08-05T07:36:02.439Z,15.32
2022-08-05T07:38:33.932Z,15.38
2022-08-05T07:42:07.743Z,14.88
2022-08-05T07:43:58.002Z,13.93
2022-08-05T07:46:30.823Z,14.27
2022-08-05T07:49:04.894Z,15.05
2022-08-05T07:51:40.807Z,14.82
2022-08-05T07:54:15.835Z,14.82
2022-08-05T07:57:13.312Z,14.90
2022-08-05T07:59:40.141Z,13.98
2022-08-05T08:04:46.175Z,14.93
2022-08-05T08:07:13.855Z,14.57
2022-08-05T08:09:41.087Z,13.85
2022-08-05T08:12:27.309Z,14.77
2022-08-05T08:14:55.180Z,15.38
2022-08-05T08:17:22.314Z,14.38
2022-08-05T08:20:21.495Z,15.10
2022-08-05T08:22:37.289Z,14.13
2022-08-05T08:25:15.773Z,14.65
2022-08-05T08:27:47.495Z,14.73
2022-08-05T08:30:28.572Z,14.20
2022-08-05T08:33:02.664Z,15.23
2022-08-05T08:35:34.826Z,14.18
2022-08-05T08:38:07.670Z,14.80
2022-08-05T08:40:35.870Z,14.35
2022-08-05T08:45:16.808Z,13.88
2022-08-05T08:45:54.172Z,13.32
2022-08-05T08:48:36.151Z,14.55
2022-08-05T08:51:54.528Z,13.93
2022-08-05T08:53:56.118Z,14.23
2022-08-05T08:56:23.669Z,14.05
2022-08-05T08:58:54.088Z,12.77
2022-08-05T09:01:21.565Z,12.95
2022-08-05T09:03:58.288Z,13.13
2022-08-05T09:06:30.857Z,12.90
2022-08-05T09:09:02.466Z,14.18
2022-08-05T09:11:51.979Z,12.80
2022-08-05T09:14:56.769Z,12.52
2022-08-05T09:17:40.156Z,12.00
2022-08-05T09:20:02.913Z,13.05
2022-08-05T09:23:18.579Z,12.45
2022-08-05T09:26:00.897Z,13.30
2022-08-05T09:28:33.207Z,12.63
2022-08-05T09:32:08.513Z,13.02
2022-08-05T09:33:58.647Z,13.07
2022-08-05T09:36:56.295Z,12.38
2022-08-05T09:39:39.289Z,13.48
2022-08-05T09:42:20.201Z,12.65
2022-08-05T09:44:56.512Z,12.70
2022-08-05T09:47:49.056Z,12.60
2022-08-05T09:50:18.099Z,13.55
2022-08-05T09:53:01.135Z,12.82
2022-08-05T09:55:57.214Z,13.13
2022-08-05T09:58:22.238Z,14.05
2022-08-05T10:01:14.995Z,14.70
2022-08-05T10:03:58.818Z,13.85
2022-08-05T10:06:30.925Z,14.40
2022-08-05T10:09:27.568Z,13.95
2022-08-05T10:11:56.116Z,13.82
2022-08-05T10:14:28.307Z,14.55
2022-08-05T10:17:36.841Z,14.13
2022-08-05T10:20:04.149Z,13.73
2022-08-05T10:22:37.977Z,13.93
2022-08-05T10:25:10.414Z,13.43
2022-08-05T10:28:13.021Z,13.82
2022-08-05T10:31:21.090Z,13.40
2022-08-05T10:33:15.717Z,16.00
2022-08-05T10:35:44.110Z,21.67
2022-08-05T10:38:13.621Z,15.45
2022-08-05T10:40:49.563Z,14.95
2022-08-05T10:43:44.766Z,15.02
2022-08-05T10:46:14.921Z,15.32
2022-08-05T10:48:56.603Z,16.30
2022-08-05T10:51:48.692Z,15.98
2022-08-05T10:54:56.264Z,16.50
2022-08-05T10:57:30.947Z,16.75
2022-08-05T11:03:09.987Z,17.67
2022-08-05T11:06:16.115Z,15.63
2022-08-05T11:09:32.179Z,15.27
2022-08-05T11:12:24.609Z,15.90
2022-08-05T11:15:20.134Z,15.45
2022-08-05T11:17:58.239Z,16.23
2022-08-05T11:20:47.534Z,15.10
2022-08-05T11:23:33.734Z,15.32
2022-08-05T11:26:29.248Z,13.90
2022-08-05T11:29:11.957Z,14.55
2022-08-05T11:31:57.341Z,15.60
2022-08-05T11:34:38.946Z,15.20
2022-08-05T11:38:36.740Z,14.02
2022-08-05T11:39:55.442Z,13.45
2022-08-05T11:42:28.527Z,13.15
2022-08-05T11:45:03.506Z,13.65
2022-08-05T11:47:48.550Z,13.73
2022-08-05T11:50:17.845Z,13.93
2022-08-05T11:52:46.050Z,13.02
2022-08-05T11:55:15.465Z,12.45
2022-08-05T11:58:10.062Z,12.30
2022-08-05T12:00:38.256Z,12.25
2022-08-05T12:03:28.694Z,12.90
2022-08-05T12:06:06.251Z,11.60
2022-08-05T12:08:51.017Z,12.98
2022-08-05T12:11:21.703Z,12.48
2022-08-05T12:14:06.172Z,11.82
2022-08-05T12:16:39.364Z,11.77
2022-08-05T12:19:08.527Z,11.45
2022-08-05T12:21:43.337Z,12.13
2022-08-05T12:24:17.596Z,12.18
2022-08-05T12:26:54.191Z,11.52
2022-08-05T12:29:22.489Z,11.93
2022-08-05T12:32:01.773Z,12.07
2022-08-05T12:34:36.949Z,12.13
2022-08-05T12:37:17.330Z,11.63
2022-08-05T12:40:03.141Z,11.40
2022-08-05T12:42:37.288Z,12.27
2022-08-05T12:45:09.846Z,11.63
2022-08-05T12:47:37.966Z,11.73
2022-08-05T12:50:15.056Z,11.82
2022-08-05T12:52:43.001Z,12.02
2022-08-05T12:55:25.689Z,11.68
2022-08-05T12:58:49.150Z,12.40
2022-08-05T13:02:04.164Z,11.70
2022-08-05T13:03:39.104Z,11.60
2022-08-05T13:06:13.366Z,12.13
2022-08-05T13:08:40.414Z,12.38
2022-08-05T13:11:07.996Z,11.40
2022-08-05T13:14:04.905Z,11.30
2022-08-05T13:16:28.733Z,10.98
2022-08-05T13:18:58.595Z,11.27
2022-08-05T13:21:28.319Z,10.68
2022-08-05T13:24:08.697Z,11.60
2022-08-05T13:26:36.179Z,10.85
2022-08-05T13:29:04.991Z,10.52
2022-08-05T13:32:02.851Z,11.38
2022-08-05T13:34:22.860Z,10.70
2022-08-05T13:36:53.673Z,10.43
2022-08-05T13:39:24.681Z,11.18
2022-08-05T13:42:14.703Z,10.70
2022-08-05T13:44:45.558Z,11.43
2022-08-05T13:47:34.786Z,10.18
2022-08-05T13:50:04.389Z,9.55
2022-08-05T13:52:35.308Z,10.23
2022-08-05T13:55:07.939Z,10.30
2022-08-05T13:57:50.870Z,9.93
2022-08-05T14:00:27.106Z,10.38
2022-08-05T14:02:56.315Z,9.90
2022-08-05T14:05:48.609Z,10.38
2022-08-05T14:08:10.698Z,9.50
2022-08-05T14:10:46.897Z,9.32
2022-08-05T14:13:15.486Z,9.90
2022-08-05T14:16:07.705Z,9.23
2022-08-05T14:18:29.311Z,10.65
2022-08-05T14:20:56.073Z,9.80
2022-08-05T14:23:25.731Z,9.10
2022-08-05T14:25:58.666Z,10.35
2022-08-05T14:28:28.507Z,9.45
2022-08-05T14:30:56.589Z,9.38
2022-08-05T14:33:23.869Z,8.98
2022-08-05T14:35:51.741Z,10.20
2022-08-05T14:38:32.290Z,10.23
2022-08-05T14:41:06.156Z,9.98
2022-08-05T14:43:57.753Z,9.90
2022-08-05T14:46:28.987Z,9.88
2022-08-05T14:49:06.326Z,9.70
2022-08-05T14:51:38.398Z,9.68
2022-08-05T14:54:28.967Z,10.40
2022-08-05T14:56:56.221Z,9.95
2022-08-05T14:59:23.166Z,10.52
2022-08-05T15:01:50.259Z,9.52
2022-08-05T15:04:20.267Z,9.43
2022-08-05T15:06:49.510Z,8.77
2022-08-05T15:09:51.556Z,9.32
2022-08-05T15:12:08.986Z,9.85
2022-08-05T15:14:42.265Z,10.05
2022-08-05T15:17:47.231Z,9.75
2022-08-05T15:20:05.007Z,9.50
2022-08-05T15:22:31.765Z,9.95
2022-08-05T15:24:59.253Z,9.50
2022-08-05T15:27:26.534Z,9.88
2022-08-05T15:29:59.199Z,9.40
2022-08-05T15:32:27.425Z,9.15
2022-08-05T15:34:56.613Z,9.68
2022-08-05T15:38:08.385Z,9.00
2022-08-05T15:41:01.804Z,9.07
2022-08-05T15:43:10.812Z,9.75
2022-08-05T15:45:45.734Z,9.10
2022-08-05T15:48:14.464Z,9.27
2022-08-05T15:50:43.760Z,8.82
2022-08-05T15:53:13.169Z,9.85
2022-08-05T15:56:02.511Z,9.18
2022-08-05T15:58:35.497Z,7.65
2022-08-05T16:01:16.165Z,6.55
2022-08-05T16:03:50.326Z,5.68
2022-08-05T16:06:20.122Z,5.43
2022-08-05T16:08:50.393Z,7.00
2022-08-05T16:11:40.143Z,6.97
2022-08-05T16:14:07.692Z,7.68
2022-08-05T16:16:36.269Z,7.85
2022-08-05T16:19:03.813Z,8.20
2022-08-05T16:21:58.972Z,7.97
2022-08-05T16:24:41.098Z,8.10
2022-08-05T16:27:05.148Z,7.60
2022-08-05T16:29:37.392Z,9.23
2022-08-05T16:32:06.466Z,8.77
2022-08-05T16:34:36.415Z,8.75
2022-08-05T16:37:03.295Z,8.65
2022-08-05T16:40:06.424Z,8.18
2022-08-05T16:42:35.221Z,9.70
2022-08-05T16:46:05.378Z,9.05
2022-08-05T16:47:53.622Z,8.32
2022-08-05T16:50:24.737Z,9.95
2022-08-05T16:52:51.509Z,9.45
2022-08-05T16:55:20.298Z,9.52
2022-08-05T16:58:00.415Z,10.40
2022-08-05T17:00:34.367Z,8.93
2022-08-05T17:03:09.189Z,8.95
2022-08-05T17:05:50.253Z,9.85
2022-08-05T17:08:35.920Z,9.25
2022-08-05T17:11:12.516Z,9.07
2022-08-05T17:13:47.408Z,9.73
2022-08-05T17:16:33.606Z,8.80
2022-08-05T17:19:01.712Z,8.85
2022-08-05T17:21:35.785Z,9.10
2022-08-05T17:24:28.461Z,9.18
2022-08-05T17:26:52.539Z,8.88
2022-08-05T17:29:22.541Z,8.63
2022-08-05T17:31:59.747Z,9.50
2022-08-05T17:34:29.869Z,9.02
2022-08-05T17:36:59.871Z,9.73
2022-08-05T17:39:34.403Z,9.27
2022-08-05T17:42:18.348Z,8.85
2022-08-05T17:44:51.351Z,9.88
2022-08-05T17:47:22.492Z,9.00
2022-08-05T17:50:04.016Z,9.00
2022-08-05T17:52:32.703Z,9.10
2022-08-05T17:55:00.445Z,8.38
2022-08-05T17:57:28.095Z,8.50
2022-08-05T18:00:04.747Z,8.38
2022-08-05T18:02:33.144Z,8.90
2022-08-05T18:05:06.332Z,8.93
2022-08-05T18:07:42.158Z,8.60
2022-08-05T18:10:20.560Z,9.57
2022-08-05T18:12:49.445Z,10.40
2022-08-05T18:15:16.469Z,10.15
2022-08-05T18:18:00.481Z,10.23
2022-08-05T18:20:32.248Z,10.80
2022-08-05T18:23:00.640Z,11.93
2022-08-05T18:25:39.251Z,10.88
2022-08-05T18:28:07.453Z,12.05
2022-08-05T18:30:38.996Z,11.77
2022-08-05T18:33:07.471Z,14.60
2022-08-05T18:36:00.817Z,10.10
2022-08-05T18:38:26.040Z,12.52
2022-08-05T18:41:57.517Z,8.30
2022-08-05T18:43:42.921Z,9.65
2022-08-05T18:46:15.227Z,11.05
2022-08-05T18:48:42.198Z,9.73
2022-08-05T18:52:04.359Z,8.88
2022-08-05T18:54:15.363Z,9.00
2022-08-05T18:56:51.076Z,8.70
2022-08-05T18:59:42.667Z,6.88
2022-08-05T19:02:05.739Z,8.20
2022-08-05T19:05:01.118Z,7.22
2022-08-05T19:07:45.141Z,7.07
2022-08-05T19:10:14.135Z,8.13
2022-08-05T19:12:40.936Z,8.15
2022-08-05T19:15:25.002Z,9.18
2022-08-05T19:18:09.064Z,8.25
2022-08-05T19:20:37.059Z,9.13
2022-08-05T19:23:08.838Z,8.35
2022-08-05T19:26:01.716Z,8.27
2022-08-05T19:28:31.236Z,8.07
2022-08-05T19:31:00.413Z,8.45
2022-08-05T19:33:34.029Z,8.60
2022-08-05T19:36:06.483Z,8.63
2022-08-05T19:38:35.899Z,10.93
2022-08-05T19:41:06.751Z,9.73
2022-08-05T19:44:06.916Z,8.70
2022-08-05T19:46:28.975Z,9.43
2022-08-05T19:49:03.051Z,9.45
2022-08-05T19:52:08.852Z,11.13
2022-08-05T19:54:25.547Z,11.02
2022-08-05T19:57:02.347Z,11.85
2022-08-05T20:02:20.135Z,11.05
2022-08-05T20:04:48.525Z,12.05
2022-08-05T20:07:15.642Z,12.55
2022-08-05T20:10:04.981Z,13.05
2022-08-05T20:12:45.817Z,12.75
2022-08-05T20:15:23.318Z,13.60
2022-08-05T20:18:09.638Z,13.98
2022-08-05T20:20:38.112Z,14.25
2022-08-05T20:23:05.570Z,13.35
2022-08-05T20:25:39.987Z,13.98
2022-08-05T20:28:08.322Z,14.38
2022-08-05T20:30:41.673Z,13.75
2022-08-05T20:33:08.826Z,14.65
2022-08-05T20:35:40.525Z,14.40
2022-08-05T20:38:20.187Z,15.32
2022-08-05T20:40:55.501Z,15.02
2022-08-05T20:43:57.473Z,14.77
2022-08-05T20:46:12.425Z,15.27
2022-08-05T20:48:45.487Z,16.13
2022-08-05T20:51:18.082Z,16.27
2022-08-05T20:53:55.242Z,16.70
2022-08-05T20:56:29.839Z,17.00
2022-08-05T20:59:00.120Z,17.15
2022-08-05T21:01:41.570Z,16.60
2022-08-05T21:04:10.420Z,16.23
2022-08-05T21:06:45.122Z,16.58
2022-08-05T21:09:14.593Z,16.20
2022-08-05T21:12:06.909Z,16.05
2022-08-05T21:14:35.028Z,16.88
2022-08-05T21:17:04.971Z,17.55
2022-08-05T21:19:47.605Z,17.52
2022-08-05T21:22:18.678Z,17.63
2022-08-05T21:24:51.698Z,17.33
2022-08-05T21:27:24.714Z,17.10
2022-08-05T21:29:52.561Z,16.98
2022-08-05T21:32:21.122Z,17.67
2022-08-05T21:35:06.957Z,17.65
2022-08-05T21:37:40.987Z,17.13
2022-08-05T21:40:13.635Z,17.80
2022-08-05T21:42:44.871Z,17.85
2022-08-05T21:45:24.081Z,17.23
2022-08-05T21:47:56.431Z,17.23
2022-08-05T21:50:25.799Z,18.00
2022-08-05T21:52:52.898Z,18.35
2022-08-05T21:55:43.164Z,18.17
2022-08-05T21:58:06.975Z,18.20
2022-08-05T22:00:37.544Z,18.73
2022-08-05T22:03:09.991Z,18.17
2022-08-05T22:05:48.642Z,18.40
2022-08-05T22:08:22.159Z,17.95
2022-08-05T22:10:50.840Z,18.00
2022-08-05T22:14:19.920Z,17.35
2022-08-05T22:16:20.490Z,17.85
2022-08-05T22:18:52.624Z,17.15
2022-08-05T22:21:20.078Z,17.67
2022-08-05T22:24:09.097Z,18.15
2022-08-05T22:26:58.527Z,16.50
2022-08-05T22:29:30.880Z,15.57
2022-08-05T22:32:02.733Z,16.15
2022-08-05T22:34:30.866Z,16.63
2022-08-05T22:36:58.298Z,17.33
2022-08-05T22:39:29.795Z,17.48
2022-08-05T22:42:09.564Z,18.02
2022-08-05T22:44:38.875Z,17.27
2022-08-05T22:47:06.687Z,18.75
2022-08-05T22:50:19.118Z,18.20
2022-08-05T22:52:30.364Z,18.15
2022-08-05T22:55:01.147Z,17.08
2022-08-05T22:57:36.184Z,15.77
2022-08-05T23:00:06.176Z,15.85
2022-08-05T23:02:35.284Z,15.65
2022-08-05T23:05:13.097Z,17.15
2022-08-05T23:07:45.150Z,16.95
2022-08-05T23:12:48.036Z,16.92
2022-08-05T23:15:18.745Z,16.50
2022-08-05T23:18:00.737Z,15.98
2022-08-05T23:20:30.307Z,16.08
2022-08-05T23:22:58.666Z,15.32
2022-08-05T23:25:53.524Z,16.00
2022-08-05T23:28:15.904Z,16.45
2022-08-05T23:30:53.021Z,17.33
2022-08-05T23:33:26.067Z,16.77
2022-08-05T23:36:10.227Z,16.67
2022-08-05T23:38:37.663Z,15.77
2022-08-05T23:41:04.509Z,17.70
2022-08-05T23:44:04.297Z,15.60
2022-08-05T23:46:21.353Z,16.50
2022-08-05T23:49:00.440Z,16.15
2022-08-05T23:51:53.543Z,14.65
2022-08-05T23:54:30.310Z,15.73
2022-08-05T23:57:04.939Z,15.63
